RJSC/GAJ METAR and TAF weather

Enter ICAO airport designator
Station Type Date Time Source
RJSC METAR 2022/01/23 10:00 UTC NOAA

RJSC 231000Z VRB02KT 9999 FEW060 BKN080 01/M00 Q1017


Station Type Date Time Source
RJSC Decoded METAR 2022/01/23 10:00 UTC NOAA

Yamagata Airport, Japan (RJSC) 38-25N 140-22E 108M
Jan 23, 2022 - 05:00 AM EST / 2022.01.23 1000 UTC
Wind: Variable at 2 MPH (2 KT):0
Visibility: greater than 7 mile(s):0
Sky conditions: mostly cloudy
Temperature: 33 F (1 C)
Dew Point: 32 F (0 C)
Relative Humidity: 93%
Pressure (altimeter): 30.03 in. Hg (1017 hPa)
ob: RJSC 231000Z VRB02KT 9999 FEW060 BKN080 01/M00 Q1017
cycle: 10

Station Type Date Time Source
RJSC TAF UTC NOAA

Error!

Example: see airport list